sensor_id;sensor_type;location;lat;lon;timestamp;pressure;altitude;pressure_sealevel;temperature;humidity
60019;BME280;45870;42.528;26.740;2023-01-04T00:01:09;100678.84;;;11.27;45.71
60019;BME280;45870;42.528;26.740;2023-01-04T00:03:35;100670.34;;;11.23;45.98
60019;BME280;45870;42.528;26.740;2023-01-04T00:06:04;100683.28;;;11.15;45.47
60019;BME280;45870;42.528;26.740;2023-01-04T00:08:30;100681.97;;;11.24;45.87
60019;BME280;45870;42.528;26.740;2023-01-04T00:11:04;100635.06;;;11.05;45.24
60019;BME280;45870;42.528;26.740;2023-01-04T00:13:30;100675.44;;;11.44;44.66
60019;BME280;45870;42.528;26.740;2023-01-04T00:15:57;100678.22;;;11.31;44.95
60019;BME280;45870;42.528;26.740;2023-01-04T00:18:22;100678.59;;;11.35;44.50
60019;BME280;45870;42.528;26.740;2023-01-04T00:20:48;100675.09;;;11.66;44.55
60019;BME280;45870;42.528;26.740;2023-01-04T00:23:14;100677.97;;;11.39;44.39
60019;BME280;45870;42.528;26.740;2023-01-04T00:25:39;100674.91;;;11.29;44.94
60019;BME280;45870;42.528;26.740;2023-01-04T00:28:06;100684.31;;;11.14;46.18
60019;BME280;45870;42.528;26.740;2023-01-04T00:30:31;100549.97;;;10.32;45.11
60019;BME280;45870;42.528;26.740;2023-01-04T00:32:57;100690.84;;;11.37;44.81
60019;BME280;45870;42.528;26.740;2023-01-04T00:35:23;100692.31;;;11.33;44.97
60019;BME280;45870;42.528;26.740;2023-01-04T00:37:49;100568.75;;;10.65;45.46
60019;BME280;45870;42.528;26.740;2023-01-04T00:40:14;100690.94;;;11.18;45.76
60019;BME280;45870;42.528;26.740;2023-01-04T00:42:40;100528.81;;;10.22;45.55
60019;BME280;45870;42.528;26.740;2023-01-04T00:45:06;100690.28;;;11.29;45.76
60019;BME280;45870;42.528;26.740;2023-01-04T00:47:32;100689.41;;;10.64;46.83
60019;BME280;45870;42.528;26.740;2023-01-04T00:49:58;100685.56;;;11.11;45.70
60019;BME280;45870;42.528;26.740;2023-01-04T00:52:24;100678.69;;;11.15;45.97
60019;BME280;45870;42.528;26.740;2023-01-04T00:54:49;100633.94;;;10.75;45.79
60019;BME280;45870;42.528;26.740;2023-01-04T00:57:15;100689.38;;;10.90;46.00
60019;BME280;45870;42.528;26.740;2023-01-04T00:59:41;100678.56;;;10.90;45.21
60019;BME280;45870;42.528;26.740;2023-01-04T01:02:07;100683.56;;;10.80;45.69
60019;BME280;45870;42.528;26.740;2023-01-04T01:04:32;100683.16;;;10.77;45.75
60019;BME280;45870;42.528;26.740;2023-01-04T01:06:58;100691.06;;;10.78;44.68
60019;BME280;45870;42.528;26.740;2023-01-04T01:09:24;100671.13;;;10.73;45.38
60019;BME280;45870;42.528;26.740;2023-01-04T01:11:52;100683.81;;;10.72;45.39
60019;BME280;45870;42.528;26.740;2023-01-04T01:14:20;100685.84;;;10.77;44.98
60019;BME280;45870;42.528;26.740;2023-01-04T01:16:46;100681.31;;;10.64;45.60
60019;BME280;45870;42.528;26.740;2023-01-04T01:19:12;100689.22;;;10.66;45.81
60019;BME280;45870;42.528;26.740;2023-01-04T01:21:38;100688.16;;;10.73;45.78
60019;BME280;45870;42.528;26.740;2023-01-04T01:24:04;100682.75;;;10.67;45.17
60019;BME280;45870;42.528;26.740;2023-01-04T01:26:30;100632.56;;;10.33;45.38
60019;BME280;45870;42.528;26.740;2023-01-04T01:28:57;100680.31;;;10.59;45.48
60019;BME280;45870;42.528;26.740;2023-01-04T01:31:26;100673.66;;;10.55;44.69
60019;BME280;45870;42.528;26.740;2023-01-04T01:33:55;100667.84;;;10.05;46.17
60019;BME280;45870;42.528;26.740;2023-01-04T01:36:22;100668.66;;;10.12;45.79
60019;BME280;45870;42.528;26.740;2023-01-04T01:38:49;100672.03;;;10.34;45.89
60019;BME280;45870;42.528;26.740;2023-01-04T01:41:21;100669.94;;;10.16;45.95
60019;BME280;45870;42.528;26.740;2023-01-04T01:46:16;100673.66;;;10.28;45.75
60019;BME280;45870;42.528;26.740;2023-01-04T01:48:44;100615.34;;;9.88;46.03
60019;BME280;45870;42.528;26.740;2023-01-04T01:51:10;100679.56;;;9.51;47.97
60019;BME280;45870;42.528;26.740;2023-01-04T01:53:39;100682.78;;;9.94;46.19
60019;BME280;45870;42.528;26.740;2023-01-04T01:56:08;100673.25;;;10.18;45.67
60019;BME280;45870;42.528;26.740;2023-01-04T01:58:41;100674.72;;;10.34;45.27
60019;BME280;45870;42.528;26.740;2023-01-04T02:01:08;100670.53;;;9.98;45.45
60019;BME280;45870;42.528;26.740;2023-01-04T02:03:38;100672.38;;;9.85;45.61
60019;BME280;45870;42.528;26.740;2023-01-04T02:06:09;100662.53;;;9.38;47.04
60019;BME280;45870;42.528;26.740;2023-01-04T02:08:37;100631.72;;;9.80;45.71
60019;BME280;45870;42.528;26.740;2023-01-04T02:11:04;100675.50;;;9.95;45.68
60019;BME280;45870;42.528;26.740;2023-01-04T02:13:31;100685.31;;;10.16;45.25
60019;BME280;45870;42.528;26.740;2023-01-04T02:16:32;100676.38;;;10.15;44.93
60019;BME280;45870;42.528;26.740;2023-01-04T02:19:13;100672.19;;;10.13;45.24
60019;BME280;45870;42.528;26.740;2023-01-04T02:24:56;100672.44;;;10.18;44.78
60019;BME280;45870;42.528;26.740;2023-01-04T02:27:48;100662.22;;;10.07;45.66
60019;BME280;45870;42.528;26.740;2023-01-04T02:33:05;100671.88;;;9.48;47.11
60019;BME280;45870;42.528;26.740;2023-01-04T02:35:46;100651.25;;;10.08;45.65
60019;BME280;45870;42.528;26.740;2023-01-04T02:38:45;100637.13;;;9.80;45.24
60019;BME280;45870;42.528;26.740;2023-01-04T02:43:52;100658.31;;;10.09;44.86
60019;BME280;45870;42.528;26.740;2023-01-04T02:46:42;100658.28;;;9.96;45.81
60019;BME280;45870;42.528;26.740;2023-01-04T02:49:09;100658.94;;;10.18;44.99
60019;BME280;45870;42.528;26.740;2023-01-04T02:51:54;100655.78;;;10.01;45.03
60019;BME280;45870;42.528;26.740;2023-01-04T02:54:23;100642.09;;;9.76;44.45
60019;BME280;45870;42.528;26.740;2023-01-04T03:05:19;100681.69;;;9.89;44.66
60019;BME280;45870;42.528;26.740;2023-01-04T03:11:02;100671.56;;;10.04;45.12
60019;BME280;45870;42.528;26.740;2023-01-04T03:13:39;100683.97;;;9.79;45.39
60019;BME280;45870;42.528;26.740;2023-01-04T03:16:17;100529.19;;;8.40;45.97
60019;BME280;45870;42.528;26.740;2023-01-04T03:18:47;100690.88;;;5.99;55.75
60019;BME280;45870;42.528;26.740;2023-01-04T03:21:15;100687.94;;;8.75;48.04
60019;BME280;45870;42.528;26.740;2023-01-04T03:23:44;100685.53;;;9.40;45.96
60019;BME280;45870;42.528;26.740;2023-01-04T03:26:33;100686.38;;;9.47;45.44
60019;BME280;45870;42.528;26.740;2023-01-04T03:29:52;100682.22;;;9.38;45.11
60019;BME280;45870;42.528;26.740;2023-01-04T03:32:52;100686.06;;;9.16;46.30
60019;BME280;45870;42.528;26.740;2023-01-04T03:35:47;100679.38;;;9.53;45.64
60019;BME280;45870;42.528;26.740;2023-01-04T03:38:32;100677.69;;;9.45;45.88
60019;BME280;45870;42.528;26.740;2023-01-04T03:41:26;100675.16;;;9.37;45.61
60019;BME280;45870;42.528;26.740;2023-01-04T03:44:35;100615.75;;;8.98;45.31
60019;BME280;45870;42.528;26.740;2023-01-04T03:50:42;100677.81;;;9.24;45.28
60019;BME280;45870;42.528;26.740;2023-01-04T03:53:10;100687.06;;;9.09;44.90
60019;BME280;45870;42.528;26.740;2023-01-04T03:55:38;100686.16;;;8.95;45.80
60019;BME280;45870;42.528;26.740;2023-01-04T03:58:06;100655.75;;;9.01;45.07
60019;BME280;45870;42.528;26.740;2023-01-04T04:00:32;100689.13;;;9.07;45.27
60019;BME280;45870;42.528;26.740;2023-01-04T04:02:58;100694.19;;;9.29;44.94
60019;BME280;45870;42.528;26.740;2023-01-04T04:05:34;100682.97;;;8.23;46.99
60019;BME280;45870;42.528;26.740;2023-01-04T04:08:20;100694.56;;;9.13;45.06
60019;BME280;45870;42.528;26.740;2023-01-04T04:11:00;100698.97;;;8.86;45.75
60019;BME280;45870;42.528;26.740;2023-01-04T04:13:48;100697.94;;;8.87;46.00
60019;BME280;45870;42.528;26.740;2023-01-04T04:16:15;100629.00;;;8.52;45.24
60019;BME280;45870;42.528;26.740;2023-01-04T04:18:41;100705.63;;;9.31;45.14
60019;BME280;45870;42.528;26.740;2023-01-04T04:21:07;100693.34;;;9.22;44.82
60019;BME280;45870;42.528;26.740;2023-01-04T04:23:33;100681.44;;;8.97;45.17
60019;BME280;45870;42.528;26.740;2023-01-04T04:25:59;100700.69;;;9.41;45.44
60019;BME280;45870;42.528;26.740;2023-01-04T04:28:25;100690.88;;;9.27;45.04
60019;BME280;45870;42.528;26.740;2023-01-04T04:30:51;100708.53;;;9.36;45.29
60019;BME280;45870;42.528;26.740;2023-01-04T04:33:17;100709.63;;;9.48;45.50
60019;BME280;45870;42.528;26.740;2023-01-04T04:35:42;100693.22;;;8.96;45.70
60019;BME280;45870;42.528;26.740;2023-01-04T04:38:08;100714.31;;;9.33;45.21
60019;BME280;45870;42.528;26.740;2023-01-04T04:40:37;100713.50;;;9.39;44.96
60019;BME280;45870;42.528;26.740;2023-01-04T04:43:21;100708.91;;;8.30;47.22
60019;BME280;45870;42.528;26.740;2023-01-04T04:45:47;100715.63;;;8.41;46.96
60019;BME280;45870;42.528;26.740;2023-01-04T04:48:13;100716.44;;;8.97;45.83
60019;BME280;45870;42.528;26.740;2023-01-04T04:50:38;100718.19;;;7.64;48.46
60019;BME280;45870;42.528;26.740;2023-01-04T04:53:04;100722.63;;;8.63;46.40
60019;BME280;45870;42.528;26.740;2023-01-04T04:55:30;100707.25;;;8.85;44.95
60019;BME280;45870;42.528;26.740;2023-01-04T04:57:55;100725.09;;;8.92;44.75
60019;BME280;45870;42.528;26.740;2023-01-04T05:00:21;100723.06;;;8.67;45.28
60019;BME280;45870;42.528;26.740;2023-01-04T05:02:47;100714.84;;;8.75;44.31
60019;BME280;45870;42.528;26.740;2023-01-04T05:05:12;100723.66;;;8.62;44.73
60019;BME280;45870;42.528;26.740;2023-01-04T05:07:38;100731.88;;;8.82;44.68
60019;BME280;45870;42.528;26.740;2023-01-04T05:10:04;100725.28;;;8.91;44.77
60019;BME280;45870;42.528;26.740;2023-01-04T05:12:30;100736.72;;;8.93;44.19
60019;BME280;45870;42.528;26.740;2023-01-04T05:15:14;100725.03;;;8.79;44.19
60019;BME280;45870;42.528;26.740;2023-01-04T05:17:40;100725.34;;;8.70;44.53
60019;BME280;45870;42.528;26.740;2023-01-04T05:20:06;100736.34;;;7.98;45.76
60019;BME280;45870;42.528;26.740;2023-01-04T05:22:31;100730.56;;;7.29;46.68
60019;BME280;45870;42.528;26.740;2023-01-04T05:24:57;100732.25;;;8.02;44.75
60019;BME280;45870;42.528;26.740;2023-01-04T05:27:23;100743.06;;;8.30;44.43
60019;BME280;45870;42.528;26.740;2023-01-04T05:29:49;100742.34;;;8.42;44.14
60019;BME280;45870;42.528;26.740;2023-01-04T05:32:33;100747.91;;;8.20;44.88
60019;BME280;45870;42.528;26.740;2023-01-04T05:34:58;100748.28;;;8.17;44.86
60019;BME280;45870;42.528;26.740;2023-01-04T05:37:24;100746.72;;;8.43;44.95
60019;BME280;45870;42.528;26.740;2023-01-04T05:39:50;100744.31;;;8.34;44.81
60019;BME280;45870;42.528;26.740;2023-01-04T05:42:16;100761.56;;;8.39;44.66
60019;BME280;45870;42.528;26.740;2023-01-04T05:44:51;100697.19;;;8.17;44.07
60019;BME280;45870;42.528;26.740;2023-01-04T05:47:17;100756.28;;;8.52;44.27
60019;BME280;45870;42.528;26.740;2023-01-04T05:49:42;100767.00;;;8.46;44.50
60019;BME280;45870;42.528;26.740;2023-01-04T05:52:08;100753.28;;;7.98;46.18
60019;BME280;45870;42.528;26.740;2023-01-04T05:54:34;100767.03;;;8.52;44.61
60019;BME280;45870;42.528;26.740;2023-01-04T05:57:00;100707.84;;;8.03;44.56
60019;BME280;45870;42.528;26.740;2023-01-04T05:59:26;100756.84;;;7.63;46.76
60019;BME280;45870;42.528;26.740;2023-01-04T06:01:51;100753.81;;;8.51;45.42
60019;BME280;45870;42.528;26.740;2023-01-04T06:04:17;100761.72;;;8.87;45.25
60019;BME280;45870;42.528;26.740;2023-01-04T06:06:44;100775.09;;;8.74;44.53
60019;BME280;45870;42.528;26.740;2023-01-04T06:09:10;100771.75;;;8.99;44.41
60019;BME280;45870;42.528;26.740;2023-01-04T06:11:36;100767.41;;;7.86;47.34
60019;BME280;45870;42.528;26.740;2023-01-04T06:14:02;100601.72;;;6.20;48.26
60019;BME280;45870;42.528;26.740;2023-01-04T06:16:28;100768.84;;;7.67;48.50
60019;BME280;45870;42.528;26.740;2023-01-04T06:18:53;100682.69;;;7.69;46.41
60019;BME280;45870;42.528;26.740;2023-01-04T06:21:19;100774.84;;;6.15;52.09
60019;BME280;45870;42.528;26.740;2023-01-04T06:23:45;100781.63;;;7.80;47.95
60019;BME280;45870;42.528;26.740;2023-01-04T06:26:10;100782.25;;;7.02;50.15
60019;BME280;45870;42.528;26.740;2023-01-04T06:28:36;100783.41;;;8.30;47.57
60019;BME280;45870;42.528;26.740;2023-01-04T06:31:06;100747.06;;;6.30;51.81
60019;BME280;45870;42.528;26.740;2023-01-04T06:33:33;100789.13;;;7.84;49.85
60019;BME280;45870;42.528;26.740;2023-01-04T06:35:59;100796.81;;;9.00;45.31
60019;BME280;45870;42.528;26.740;2023-01-04T06:38:25;100799.91;;;8.06;47.86
60019;BME280;45870;42.528;26.740;2023-01-04T06:40:51;100747.53;;;8.44;46.86
60019;BME280;45870;42.528;26.740;2023-01-04T06:43:17;100798.31;;;9.43;45.17
60019;BME280;45870;42.528;26.740;2023-01-04T06:45:43;100802.25;;;9.88;45.10
60019;BME280;45870;42.528;26.740;2023-01-04T06:48:09;100804.34;;;9.99;44.31
60019;BME280;45870;42.528;26.740;2023-01-04T06:50:35;100818.88;;;9.98;44.01
60019;BME280;45870;42.528;26.740;2023-01-04T06:53:00;100813.97;;;10.15;44.87
60019;BME280;45870;42.528;26.740;2023-01-04T06:55:26;100801.50;;;10.21;43.88
60019;BME280;45870;42.528;26.740;2023-01-04T06:57:57;100814.03;;;10.48;43.51
60019;BME280;45870;42.528;26.740;2023-01-04T07:00:24;100814.84;;;10.88;43.61
60019;BME280;45870;42.528;26.740;2023-01-04T07:02:50;100765.53;;;9.87;44.14
60019;BME280;45870;42.528;26.740;2023-01-04T07:05:16;100692.16;;;9.38;44.60
60019;BME280;45870;42.528;26.740;2023-01-04T07:07:42;100827.53;;;10.94;43.78
60019;BME280;45870;42.528;26.740;2023-01-04T07:10:08;100826.38;;;11.54;42.70
60019;BME280;45870;42.528;26.740;2023-01-04T07:12:35;100827.16;;;11.81;41.34
60019;BME280;45870;42.528;26.740;2023-01-04T07:15:01;100832.19;;;11.58;42.76
60019;BME280;45870;42.528;26.740;2023-01-04T07:17:26;100835.53;;;11.60;42.52
60019;BME280;45870;42.528;26.740;2023-01-04T07:19:52;100843.00;;;12.15;41.91
60019;BME280;45870;42.528;26.740;2023-01-04T07:22:18;100834.47;;;12.49;40.80
60019;BME280;45870;42.528;26.740;2023-01-04T07:24:44;100844.19;;;11.88;41.53
60019;BME280;45870;42.528;26.740;2023-01-04T07:27:10;100836.28;;;12.87;39.82
60019;BME280;45870;42.528;26.740;2023-01-04T07:29:36;100838.94;;;11.99;42.21
60019;BME280;45870;42.528;26.740;2023-01-04T07:32:02;100841.34;;;11.57;41.70
60019;BME280;45870;42.528;26.740;2023-01-04T07:34:28;100848.22;;;12.79;39.46
60019;BME280;45870;42.528;26.740;2023-01-04T07:36:54;100839.75;;;13.43;38.54
60019;BME280;45870;42.528;26.740;2023-01-04T07:39:20;100842.38;;;13.50;39.45
60019;BME280;45870;42.528;26.740;2023-01-04T07:41:48;100848.66;;;14.17;38.52
60019;BME280;45870;42.528;26.740;2023-01-04T07:44:14;100845.22;;;13.55;38.59
60019;BME280;45870;42.528;26.740;2023-01-04T07:46:42;100848.75;;;13.19;39.75
60019;BME280;45870;42.528;26.740;2023-01-04T07:49:12;100861.69;;;13.17;39.93
60019;BME280;45870;42.528;26.740;2023-01-04T07:51:38;100858.78;;;14.10;37.45
60019;BME280;45870;42.528;26.740;2023-01-04T07:54:03;100599.81;;;12.80;36.85
60019;BME280;45870;42.528;26.740;2023-01-04T07:56:29;100848.13;;;14.08;38.18
60019;BME280;45870;42.528;26.740;2023-01-04T07:58:55;100847.00;;;13.00;40.72
60019;BME280;45870;42.528;26.740;2023-01-04T08:01:24;100844.38;;;13.18;40.45
60019;BME280;45870;42.528;26.740;2023-01-04T08:03:51;100840.09;;;13.29;40.88
60019;BME280;45870;42.528;26.740;2023-01-04T08:06:19;100844.94;;;13.45;40.84
60019;BME280;45870;42.528;26.740;2023-01-04T08:08:45;100671.72;;;12.33;41.14
60019;BME280;45870;42.528;26.740;2023-01-04T08:11:15;100844.66;;;13.10;42.66
60019;BME280;45870;42.528;26.740;2023-01-04T08:13:41;100833.47;;;13.43;43.06
60019;BME280;45870;42.528;26.740;2023-01-04T08:18:51;100832.66;;;13.61;43.89
60019;BME280;45870;42.528;26.740;2023-01-04T08:21:17;100837.06;;;14.10;42.98
60019;BME280;45870;42.528;26.740;2023-01-04T08:23:43;100839.38;;;14.24;42.52
60019;BME280;45870;42.528;26.740;2023-01-04T08:26:11;100839.66;;;12.82;44.73
60019;BME280;45870;42.528;26.740;2023-01-04T08:28:37;100844.66;;;11.59;49.06
60019;BME280;45870;42.528;26.740;2023-01-04T08:31:06;100837.81;;;12.51;46.50
60019;BME280;45870;42.528;26.740;2023-01-04T08:33:33;100843.53;;;10.76;52.43
60019;BME280;45870;42.528;26.740;2023-01-04T08:38:53;100813.41;;;10.72;51.78
60019;BME280;45870;42.528;26.740;2023-01-04T08:41:19;100817.13;;;8.75;58.25
60019;BME280;45870;42.528;26.740;2023-01-04T08:43:45;100837.94;;;9.49;56.56
60019;BME280;45870;42.528;26.740;2023-01-04T08:46:12;100836.59;;;10.21;55.53
60019;BME280;45870;42.528;26.740;2023-01-04T08:48:41;100822.91;;;10.29;53.95
60019;BME280;45870;42.528;26.740;2023-01-04T08:51:11;100837.59;;;10.13;54.51
60019;BME280;45870;42.528;26.740;2023-01-04T08:53:37;100839.31;;;9.80;55.25
60019;BME280;45870;42.528;26.740;2023-01-04T08:56:03;100836.09;;;10.04;55.05
60019;BME280;45870;42.528;26.740;2023-01-04T08:58:30;100833.78;;;9.94;54.95
60019;BME280;45870;42.528;26.740;2023-01-04T09:01:01;100829.06;;;11.54;51.58
60019;BME280;45870;42.528;26.740;2023-01-04T09:03:28;100837.78;;;9.64;57.31
60019;BME280;45870;42.528;26.740;2023-01-04T09:06:10;100840.19;;;11.07;52.46
60019;BME280;45870;42.528;26.740;2023-01-04T09:08:37;100828.47;;;10.14;54.76
60019;BME280;45870;42.528;26.740;2023-01-04T09:11:06;100832.28;;;10.52;54.05
60019;BME280;45870;42.528;26.740;2023-01-04T09:13:33;100828.78;;;11.05;52.92
60019;BME280;45870;42.528;26.740;2023-01-04T09:16:04;100836.66;;;13.40;47.46
60019;BME280;45870;42.528;26.740;2023-01-04T09:18:31;100823.94;;;11.26;53.63
60019;BME280;45870;42.528;26.740;2023-01-04T09:20:57;100824.22;;;11.89;51.28
60019;BME280;45870;42.528;26.740;2023-01-04T09:23:25;100817.72;;;11.32;53.63
60019;BME280;45870;42.528;26.740;2023-01-04T09:25:50;100806.44;;;14.32;45.70
60019;BME280;45870;42.528;26.740;2023-01-04T09:28:16;100813.13;;;12.35;50.03
60019;BME280;45870;42.528;26.740;2023-01-04T09:30:42;100804.69;;;13.78;47.25
60019;BME280;45870;42.528;26.740;2023-01-04T09:33:07;100769.31;;;11.75;52.57
60019;BME280;45870;42.528;26.740;2023-01-04T09:35:33;100802.22;;;13.40;47.91
60019;BME280;45870;42.528;26.740;2023-01-04T09:37:59;100734.84;;;14.68;44.66
60019;BME280;45870;42.528;26.740;2023-01-04T09:40:32;100800.16;;;13.72;47.92
60019;BME280;45870;42.528;26.740;2023-01-04T09:43:00;100798.00;;;14.40;47.47
60019;BME280;45870;42.528;26.740;2023-01-04T09:45:27;100796.44;;;14.03;48.44
60019;BME280;45870;42.528;26.740;2023-01-04T09:47:54;100795.06;;;14.42;47.54
60019;BME280;45870;42.528;26.740;2023-01-04T09:50:28;100799.63;;;14.00;48.09
60019;BME280;45870;42.528;26.740;2023-01-04T09:53:03;100793.66;;;14.51;47.43
60019;BME280;45870;42.528;26.740;2023-01-04T09:55:38;100795.34;;;13.74;47.86
60019;BME280;45870;42.528;26.740;2023-01-04T10:00:58;100787.22;;;14.98;45.68
60019;BME280;45870;42.528;26.740;2023-01-04T10:03:35;100789.03;;;14.22;47.44
60019;BME280;45870;42.528;26.740;2023-01-04T10:06:04;100762.34;;;12.80;50.99
60019;BME280;45870;42.528;26.740;2023-01-04T10:08:30;100711.19;;;12.90;49.83
60019;BME280;45870;42.528;26.740;2023-01-04T10:11:18;100788.88;;;14.05;48.60
60019;BME280;45870;42.528;26.740;2023-01-04T10:14:07;100797.50;;;15.55;44.91
60019;BME280;45870;42.528;26.740;2023-01-04T10:16:48;100783.25;;;16.32;42.78
60019;BME280;45870;42.528;26.740;2023-01-04T10:21:58;100789.94;;;15.85;44.76
60019;BME280;45870;42.528;26.740;2023-01-04T10:29:59;100791.91;;;12.81;52.65
60019;BME280;45870;42.528;26.740;2023-01-04T10:35:18;100782.75;;;14.39;48.08
60019;BME280;45870;42.528;26.740;2023-01-04T10:37:47;100781.19;;;15.08;46.41
60019;BME280;45870;42.528;26.740;2023-01-04T10:40:16;100779.03;;;17.25;42.01
60019;BME280;45870;42.528;26.740;2023-01-04T10:43:02;100747.72;;;17.71;41.05
60019;BME280;45870;42.528;26.740;2023-01-04T10:45:42;100773.78;;;18.59;39.56
60019;BME280;45870;42.528;26.740;2023-01-04T10:50:57;100626.25;;;18.05;38.73
60019;BME280;45870;42.528;26.740;2023-01-04T10:53:32;100773.97;;;19.68;37.41
60019;BME280;45870;42.528;26.740;2023-01-04T10:56:17;100767.88;;;20.38;36.40
60019;BME280;45870;42.528;26.740;2023-01-04T10:58:46;100766.50;;;20.35;35.91
60019;BME280;45870;42.528;26.740;2023-01-04T11:01:32;100770.19;;;19.27;37.66
60019;BME280;45870;42.528;26.740;2023-01-04T11:04:18;100762.28;;;18.88;39.26
60019;BME280;45870;42.528;26.740;2023-01-04T11:07:09;100771.56;;;18.87;39.57
60019;BME280;45870;42.528;26.740;2023-01-04T11:10:05;100770.34;;;20.39;36.15
60019;BME280;45870;42.528;26.740;2023-01-04T11:12:33;100763.09;;;18.89;39.31
60019;BME280;45870;42.528;26.740;2023-01-04T11:14:59;100757.13;;;20.21;36.65
60019;BME280;45870;42.528;26.740;2023-01-04T11:17:25;100761.94;;;18.21;40.53
60019;BME280;45870;42.528;26.740;2023-01-04T11:19:52;100761.78;;;18.65;40.31
60019;BME280;45870;42.528;26.740;2023-01-04T11:22:39;100695.81;;;15.72;45.34
60019;BME280;45870;42.528;26.740;2023-01-04T11:25:11;100757.78;;;18.45;40.43
60019;BME280;45870;42.528;26.740;2023-01-04T11:27:50;100752.91;;;17.94;41.26
60019;BME280;45870;42.528;26.740;2023-01-04T11:30:26;100756.94;;;18.72;40.10
60019;BME280;45870;42.528;26.740;2023-01-04T11:33:07;100756.84;;;17.38;43.72
60019;BME280;45870;42.528;26.740;2023-01-04T11:35:47;100760.78;;;17.90;42.73
60019;BME280;45870;42.528;26.740;2023-01-04T11:38:17;100755.13;;;17.97;41.14
60019;BME280;45870;42.528;26.740;2023-01-04T11:41:07;100751.81;;;17.73;42.19
60019;BME280;45870;42.528;26.740;2023-01-04T11:43:58;100743.91;;;16.57;45.54
60019;BME280;45870;42.528;26.740;2023-01-04T11:46:26;100752.22;;;16.50;45.40
60019;BME280;45870;42.528;26.740;2023-01-04T11:48:53;100754.56;;;17.52;43.74
60019;BME280;45870;42.528;26.740;2023-01-04T11:54:05;100744.28;;;16.48;45.75
60019;BME280;45870;42.528;26.740;2023-01-04T11:56:33;100741.00;;;17.18;45.37
60019;BME280;45870;42.528;26.740;2023-01-04T11:59:13;100739.06;;;17.79;43.60
60019;BME280;45870;42.528;26.740;2023-01-04T12:01:42;100737.50;;;17.83;43.29
60019;BME280;45870;42.528;26.740;2023-01-04T12:04:12;100708.59;;;17.22;44.94
60019;BME280;45870;42.528;26.740;2023-01-04T12:06:52;100742.63;;;16.47;46.46
60019;BME280;45870;42.528;26.740;2023-01-04T12:09:21;100740.16;;;16.46;46.88
60019;BME280;45870;42.528;26.740;2023-01-04T12:11:50;100734.13;;;16.94;45.37
60019;BME280;45870;42.528;26.740;2023-01-04T12:19:30;100744.88;;;17.61;43.96
60019;BME280;45870;42.528;26.740;2023-01-04T12:21:58;100736.41;;;17.40;44.49
60019;BME280;45870;42.528;26.740;2023-01-04T12:24:27;100738.25;;;17.57;44.95
60019;BME280;45870;42.528;26.740;2023-01-04T12:26:55;100732.00;;;18.05;44.50
60019;BME280;45870;42.528;26.740;2023-01-04T12:31:48;100734.56;;;17.68;44.99
60019;BME280;45870;42.528;26.740;2023-01-04T12:36:59;100742.19;;;17.44;45.65
60019;BME280;45870;42.528;26.740;2023-01-04T12:39:35;100749.41;;;17.33;45.60
60019;BME280;45870;42.528;26.740;2023-01-04T12:52:47;100731.66;;;16.59;46.93
60019;BME280;45870;42.528;26.740;2023-01-04T13:08:14;100753.19;;;17.32;45.64
60019;BME280;45870;42.528;26.740;2023-01-04T13:10:48;100748.81;;;16.93;46.37
60019;BME280;45870;42.528;26.740;2023-01-04T13:13:40;100755.50;;;16.85;46.75
60019;BME280;45870;42.528;26.740;2023-01-04T13:21:09;100749.56;;;16.72;46.50
60019;BME280;45870;42.528;26.740;2023-01-04T13:23:37;100756.84;;;16.49;47.68
60019;BME280;45870;42.528;26.740;2023-01-04T13:29:13;100749.00;;;16.53;48.00
60019;BME280;45870;42.528;26.740;2023-01-04T13:32:03;100739.06;;;16.30;48.15
60019;BME280;45870;42.528;26.740;2023-01-04T13:34:34;100759.63;;;16.55;48.00
60019;BME280;45870;42.528;26.740;2023-01-04T13:39:48;100753.75;;;16.29;48.30
60019;BME280;45870;42.528;26.740;2023-01-04T13:45:25;100749.69;;;15.87;49.18
60019;BME280;45870;42.528;26.740;2023-01-04T13:47:58;100756.31;;;15.91;49.25
60019;BME280;45870;42.528;26.740;2023-01-04T13:50:38;100746.38;;;16.13;49.00
60019;BME280;45870;42.528;26.740;2023-01-04T13:53:17;100757.22;;;16.41;47.58
60019;BME280;45870;42.528;26.740;2023-01-04T13:55:49;100717.81;;;16.16;48.54
60019;BME280;45870;42.528;26.740;2023-01-04T13:58:17;100755.22;;;16.20;47.85
60019;BME280;45870;42.528;26.740;2023-01-04T14:00:49;100768.66;;;16.10;48.96
60019;BME280;45870;42.528;26.740;2023-01-04T14:03:35;100770.66;;;15.86;49.57
60019;BME280;45870;42.528;26.740;2023-01-04T14:19:53;100782.25;;;15.93;49.03
60019;BME280;45870;42.528;26.740;2023-01-04T14:24:50;100781.09;;;16.06;48.78
60019;BME280;45870;42.528;26.740;2023-01-04T14:33:00;100788.44;;;16.06;48.38
60019;BME280;45870;42.528;26.740;2023-01-04T14:35:28;100640.81;;;15.30;48.73
60019;BME280;45870;42.528;26.740;2023-01-04T14:38:03;100593.81;;;14.55;49.24
60019;BME280;45870;42.528;26.740;2023-01-04T14:40:29;100753.63;;;15.51;49.46
60019;BME280;45870;42.528;26.740;2023-01-04T14:42:57;100787.00;;;15.86;49.29
60019;BME280;45870;42.528;26.740;2023-01-04T14:45:22;100792.56;;;16.08;48.79
60019;BME280;45870;42.528;26.740;2023-01-04T14:47:48;100792.53;;;16.20;48.57
60019;BME280;45870;42.528;26.740;2023-01-04T14:50:15;100784.88;;;16.05;48.61
60019;BME280;45870;42.528;26.740;2023-01-04T14:52:49;100785.34;;;16.59;47.45
60019;BME280;45870;42.528;26.740;2023-01-04T14:55:15;100788.88;;;16.42;47.93
60019;BME280;45870;42.528;26.740;2023-01-04T14:57:41;100789.47;;;15.88;49.75
60019;BME280;45870;42.528;26.740;2023-01-04T15:00:13;100797.88;;;15.86;49.64